createdAt,value
2023-08-31T00:00:16.602Z,75.200000
2023-08-31T00:05:16.653Z,75.000000
2023-08-31T00:10:16.654Z,74.900000
2023-08-31T00:15:16.571Z,74.700000
2023-08-31T00:20:18.476Z,74.600000
2023-08-31T00:25:18.469Z,74.400000
2023-08-31T00:30:18.388Z,74.200000
2023-08-31T00:35:18.390Z,74.000000
2023-08-31T00:41:01.945Z,73.800000
2023-08-31T00:45:18.382Z,73.700000
2023-08-31T00:50:24.722Z,73.500000
2023-08-31T00:56:01.919Z,73.500000
2023-08-31T01:00:18.399Z,73.400000
2023-08-31T01:05:18.438Z,73.300000
2023-08-31T01:10:16.736Z,73.200000
2023-08-31T01:15:18.503Z,73.100000
2023-08-31T01:21:01.896Z,73.100000
2023-08-31T01:26:01.983Z,73.000000
2023-08-31T01:31:01.906Z,72.900000
2023-08-31T01:36:01.883Z,72.800000
2023-08-31T01:40:16.669Z,72.600000
2023-08-31T01:45:21.452Z,72.500000
2023-08-31T01:51:01.978Z,72.200000
2023-08-31T01:55:16.664Z,72.100000
2023-08-31T02:00:16.830Z,71.900000
2023-08-31T02:05:24.752Z,71.800000
2023-08-31T02:10:18.461Z,71.600000
2023-08-31T02:16:02.124Z,71.500000
2023-08-31T02:20:16.663Z,71.400000
2023-08-31T02:25:16.734Z,71.300000
2023-08-31T02:30:18.474Z,71.200000
2023-08-31T02:35:18.537Z,71.000000
2023-08-31T02:41:02.077Z,70.900000
2023-08-31T02:45:16.628Z,70.800000
2023-08-31T02:50:18.478Z,70.700000
2023-08-31T02:55:18.523Z,70.600000
2023-08-31T03:01:02.143Z,70.500000
2023-08-31T03:05:16.762Z,70.300000
2023-08-31T03:10:18.502Z,70.200000
2023-08-31T03:15:16.690Z,70.100000
2023-08-31T03:20:18.502Z,70.000000
2023-08-31T03:25:18.553Z,69.900000
2023-08-31T03:30:24.888Z,69.700000
2023-08-31T03:36:01.970Z,69.600000
2023-08-31T03:40:16.685Z,69.500000
2023-08-31T03:45:18.503Z,69.300000
2023-08-31T03:50:18.475Z,69.200000
2023-08-31T03:56:01.952Z,69.100000
2023-08-31T04:01:01.206Z,69.000000
2023-08-31T04:05:15.969Z,68.800000
2023-08-31T04:10:23.998Z,68.700000
2023-08-31T04:16:01.346Z,68.600000
2023-08-31T04:20:17.763Z,68.500000
2023-08-31T04:25:17.759Z,68.300000
2023-08-31T04:30:24.117Z,68.200000
2023-08-31T04:35:17.800Z,68.100000
2023-08-31T04:40:17.717Z,68.000000
2023-08-31T04:45:15.982Z,67.900000
2023-08-31T04:51:01.223Z,67.800000
2023-08-31T04:56:01.249Z,67.800000
2023-08-31T05:00:17.793Z,67.700000
2023-08-31T05:05:17.749Z,67.600000
2023-08-31T05:11:01.265Z,67.500000
2023-08-31T05:15:17.762Z,67.500000
2023-08-31T05:20:16.011Z,67.500000
2023-08-31T05:25:17.797Z,67.500000
2023-08-31T05:31:01.287Z,67.400000
2023-08-31T05:35:17.757Z,67.400000
2023-08-31T05:40:16.069Z,67.300000
2023-08-31T05:45:17.817Z,67.300000
2023-08-31T05:51:01.306Z,67.200000
2023-08-31T05:55:15.992Z,67.200000
2023-08-31T06:00:16.065Z,67.200000
2023-08-31T06:05:55.074Z,67.100000
2023-08-31T06:10:24.058Z,67.000000
2023-08-31T06:15:16.023Z,66.900000
2023-08-31T06:20:16.031Z,66.900000
2023-08-31T06:25:16.029Z,66.800000
2023-08-31T06:30:17.783Z,66.800000
2023-08-31T06:35:19.137Z,66.700000
2023-08-31T06:40:17.799Z,66.600000
2023-08-31T06:45:17.868Z,66.600000
2023-08-31T06:50:15.994Z,66.500000
2023-08-31T06:55:16.003Z,66.400000
2023-08-31T07:00:16.030Z,66.400000
2023-08-31T07:06:01.272Z,66.300000
2023-08-31T07:11:01.269Z,66.100000
2023-08-31T07:15:16.010Z,66.100000
2023-08-31T07:20:17.845Z,66.000000
2023-08-31T07:26:01.315Z,65.900000
2023-08-31T07:30:17.827Z,65.900000
2023-08-31T07:35:17.956Z,65.800000
2023-08-31T07:40:16.050Z,65.800000
2023-08-31T07:45:17.903Z,65.800000
2023-08-31T07:50:17.834Z,65.700000
2023-08-31T07:55:17.800Z,65.600000
2023-08-31T08:01:01.409Z,65.600000
2023-08-31T08:05:19.585Z,65.600000
2023-08-31T08:10:17.903Z,65.500000
2023-08-31T08:15:15.969Z,65.400000
2023-08-31T08:21:01.369Z,65.400000
2023-08-31T08:25:17.874Z,65.300000
2023-08-31T08:30:17.923Z,65.200000
2023-08-31T08:35:16.092Z,65.200000
2023-08-31T08:41:01.386Z,65.100000
2023-08-31T08:46:01.404Z,65.100000
2023-08-31T08:50:17.928Z,65.000000
2023-08-31T08:56:01.358Z,65.000000
2023-08-31T09:00:17.884Z,65.000000
2023-08-31T09:05:16.252Z,64.900000
2023-08-31T09:10:17.889Z,64.800000
2023-08-31T09:15:17.951Z,64.800000
2023-08-31T09:20:17.858Z,64.700000
2023-08-31T09:26:01.350Z,64.700000
2023-08-31T09:30:16.090Z,64.600000
2023-08-31T09:35:20.019Z,64.500000
2023-08-31T09:41:01.354Z,64.400000
2023-08-31T09:45:16.095Z,64.300000
2023-08-31T09:50:18.009Z,64.300000
2023-08-31T09:55:24.150Z,64.200000
2023-08-31T10:01:01.387Z,64.100000
2023-08-31T10:06:01.378Z,64.100000
2023-08-31T10:10:16.087Z,64.000000
2023-08-31T10:15:24.156Z,63.900000
2023-08-31T10:21:01.396Z,63.800000
2023-08-31T10:25:16.120Z,63.700000
2023-08-31T10:31:01.502Z,63.600000
2023-08-31T10:36:01.464Z,63.600000
2023-08-31T10:41:01.367Z,63.500000
2023-08-31T10:45:16.126Z,63.400000
2023-08-31T10:51:01.501Z,63.400000
2023-08-31T10:55:18.014Z,63.300000
2023-08-31T11:00:17.972Z,63.300000
2023-08-31T11:05:17.897Z,63.200000
2023-08-31T11:10:16.132Z,63.100000
2023-08-31T11:15:18.145Z,63.100000
2023-08-31T11:20:16.124Z,63.100000
2023-08-31T11:25:17.949Z,63.100000
2023-08-31T11:30:16.138Z,63.100000
2023-08-31T11:35:17.960Z,63.100000
2023-08-31T11:41:01.420Z,63.100000
2023-08-31T11:46:01.897Z,63.200000
2023-08-31T11:50:16.035Z,63.200000
2023-08-31T11:55:16.382Z,63.400000
2023-08-31T12:01:01.511Z,63.300000
2023-08-31T12:05:24.188Z,63.500000
2023-08-31T12:10:17.967Z,63.700000
2023-08-31T12:15:24.437Z,63.900000
2023-08-31T12:20:17.957Z,64.100000
2023-08-31T12:25:16.156Z,64.300000
2023-08-31T12:30:24.263Z,64.500000
2023-08-31T12:35:17.964Z,64.600000
2023-08-31T12:41:01.429Z,64.700000
2023-08-31T12:45:17.984Z,64.900000
2023-08-31T12:50:16.125Z,65.000000
2023-08-31T12:55:16.126Z,65.400000
2023-08-31T13:00:17.998Z,65.500000
2023-08-31T13:05:18.099Z,65.700000
2023-08-31T13:10:18.020Z,65.900000
2023-08-31T13:16:01.468Z,66.100000
2023-08-31T13:20:18.042Z,66.400000
2023-08-31T13:25:18.006Z,66.600000
2023-08-31T13:30:17.973Z,67.000000
2023-08-31T13:35:17.994Z,67.400000
2023-08-31T13:40:17.962Z,67.700000
2023-08-31T13:46:01.482Z,68.000000
2023-08-31T13:50:18.058Z,68.200000
2023-08-31T13:55:18.039Z,68.300000
2023-08-31T14:00:16.252Z,68.400000
2023-08-31T14:05:16.172Z,68.600000
2023-08-31T14:10:16.208Z,68.800000
2023-08-31T14:15:16.201Z,68.800000
2023-08-31T14:21:01.535Z,69.000000
2023-08-31T14:26:01.735Z,69.100000
2023-08-31T14:30:17.996Z,68.900000
2023-08-31T14:35:16.218Z,68.800000
2023-08-31T14:41:01.506Z,69.200000
2023-08-31T14:45:24.265Z,69.400000
2023-08-31T14:50:18.063Z,69.600000
2023-08-31T14:55:16.223Z,69.700000
2023-08-31T15:00:18.125Z,70.100000
2023-08-31T15:05:18.163Z,70.300000
2023-08-31T15:10:18.029Z,70.500000
2023-08-31T15:15:55.292Z,70.800000
2023-08-31T15:20:18.039Z,71.000000
2023-08-31T15:25:18.056Z,71.100000
2023-08-31T15:31:01.559Z,71.000000
2023-08-31T15:35:18.094Z,71.300000
2023-08-31T15:40:18.072Z,71.300000
2023-08-31T15:45:17.997Z,71.600000
2023-08-31T15:50:18.073Z,71.900000
2023-08-31T15:55:24.266Z,72.100000
2023-08-31T16:00:18.032Z,72.100000
2023-08-31T16:05:16.181Z,72.400000
2023-08-31T16:10:16.314Z,72.800000
2023-08-31T16:15:18.072Z,72.800000
2023-08-31T16:20:16.237Z,72.700000
2023-08-31T16:26:01.503Z,73.000000
2023-08-31T16:30:18.040Z,72.900000
2023-08-31T16:35:16.266Z,73.200000
2023-08-31T16:40:18.113Z,73.200000
2023-08-31T16:46:01.625Z,73.000000
2023-08-31T16:51:01.495Z,73.200000
2023-08-31T16:55:18.049Z,73.400000
2023-08-31T17:00:16.312Z,73.600000
2023-08-31T17:06:01.576Z,73.500000
2023-08-31T17:10:16.250Z,73.400000
2023-08-31T17:16:01.653Z,73.300000
2023-08-31T17:20:18.087Z,73.400000
2023-08-31T17:25:18.102Z,73.400000
2023-08-31T17:31:01.635Z,73.200000
2023-08-31T17:35:18.069Z,73.300000
2023-08-31T17:40:18.097Z,73.200000
2023-08-31T17:45:18.092Z,73.200000
2023-08-31T17:50:18.069Z,73.100000
2023-08-31T17:56:01.637Z,73.000000
2023-08-31T18:00:18.098Z,73.100000
2023-08-31T18:05:16.367Z,73.000000
2023-08-31T18:11:01.652Z,72.800000
2023-08-31T18:15:24.328Z,72.700000
2023-08-31T18:20:18.103Z,72.700000
2023-08-31T18:26:01.622Z,72.700000
2023-08-31T18:30:18.084Z,72.900000
2023-08-31T18:36:01.639Z,73.000000
2023-08-31T18:40:16.281Z,73.100000
2023-08-31T18:45:24.366Z,73.100000
2023-08-31T18:50:16.315Z,73.100000
2023-08-31T18:55:16.273Z,72.900000
2023-08-31T19:01:01.765Z,72.900000
2023-08-31T19:05:18.137Z,72.900000
2023-08-31T19:11:01.703Z,73.000000
2023-08-31T19:15:24.339Z,73.000000
2023-08-31T19:21:10.485Z,73.200000
2023-08-31T19:25:24.346Z,73.300000
2023-08-31T19:31:01.642Z,73.400000
2023-08-31T19:35:39.125Z,73.500000
2023-08-31T19:41:01.615Z,73.500000
2023-08-31T19:45:18.097Z,73.500000
2023-08-31T19:50:18.177Z,73.500000
2023-08-31T19:55:18.130Z,73.500000
2023-08-31T20:00:16.276Z,73.600000
2023-08-31T20:05:18.174Z,73.800000
2023-08-31T20:10:24.387Z,73.700000
2023-08-31T20:15:18.160Z,73.700000
2023-08-31T20:20:16.320Z,73.600000
2023-08-31T20:25:19.220Z,73.500000
2023-08-31T20:31:01.857Z,73.400000
2023-08-31T20:35:18.152Z,73.500000
2023-08-31T20:41:01.673Z,73.600000
2023-08-31T20:45:18.120Z,73.700000
2023-08-31T20:50:18.172Z,73.700000
2023-08-31T20:55:16.333Z,73.700000
2023-08-31T21:01:01.649Z,73.600000
2023-08-31T21:05:18.886Z,73.500000
2023-08-31T21:10:24.388Z,73.400000
2023-08-31T21:15:16.315Z,73.200000
2023-08-31T21:20:18.270Z,72.800000
2023-08-31T21:25:16.339Z,72.400000
2023-08-31T21:30:16.329Z,72.200000
2023-08-31T21:35:24.452Z,71.900000
2023-08-31T21:40:18.156Z,71.800000
2023-08-31T21:45:16.362Z,71.700000
2023-08-31T21:50:16.355Z,71.500000
2023-08-31T21:55:18.215Z,71.500000
2023-08-31T22:00:16.357Z,71.400000
2023-08-31T22:05:16.361Z,71.100000
2023-08-31T22:11:01.686Z,70.900000
2023-08-31T22:15:18.162Z,70.700000
2023-08-31T22:20:24.630Z,70.600000
2023-08-31T22:25:16.408Z,70.500000
2023-08-31T22:30:16.366Z,70.400000
2023-08-31T22:35:16.716Z,70.200000
2023-08-31T22:40:18.249Z,70.200000
2023-08-31T22:45:18.228Z,70.000000
2023-08-31T22:50:16.384Z,69.700000
2023-08-31T22:55:16.376Z,69.600000
2023-08-31T23:00:16.369Z,69.400000
2023-08-31T23:05:18.214Z,69.400000
2023-08-31T23:10:23.125Z,69.100000
2023-08-31T23:15:18.165Z,68.900000
2023-08-31T23:20:18.232Z,68.900000
2023-08-31T23:25:24.579Z,68.800000
2023-08-31T23:30:16.397Z,68.600000
2023-08-31T23:35:16.391Z,68.600000
2023-08-31T23:40:18.258Z,68.300000
2023-08-31T23:45:18.259Z,68.300000
2023-08-31T23:51:01.690Z,68.100000
2023-08-31T23:55:18.217Z,67.900000
